KHFD/HFD METAR and TAF weather

Enter ICAO airport designator
Station Type Date Time Source
KHFD METAR 2022/01/29 13:53 UTC NOAA

KHFD 291353Z 36013G24KT 1/2SM SN VV014 M07/M11 A2969 RMK AO2 PK WND 01027/1309 SLP053 P0000 T10721106


Station Type Date Time Source
KHFD Decoded METAR 2022/01/29 13:53 UTC NOAA

HARTFORD-BRAINARD AIRPORT, CT, United States (KHFD) 41-44N 072-39W 4M
Jan 29, 2022 - 08:53 AM EST / 2022.01.29 1353 UTC
Wind: from the N (360 degrees) at 15 MPH (13 KT) gusting to 28 MPH (24 KT):0
Visibility: 1/2 mile(s):0
Sky conditions: obscured
Weather: snow
Precipitation last hour: A trace
Temperature: 19.0 F (-7.2 C)
Windchill: 5 F (-15 C):1
Dew Point: 12.9 F (-10.6 C)
Relative Humidity: 76%
Pressure (altimeter): 29.69 in. Hg (1005 hPa)
ob: KHFD 291353Z 36013G24KT 1/2SM SN VV014 M07/M11 A2969 RMK AO2 PK WND 01027/1309 SLP053 P0000 T10721106
cycle: 14

Station Type Date Time Source
KHFD TAF UTC NOAA

Error!

Example: see airport list